sensor_id;sensor_type;location;lat;lon;timestamp;P1;durP1;ratioP1;P2;durP2;ratioP2
3941;SDS011;1985;48.592;8.850;2022-11-20T00:03:36;10.00;;;3.00;;
3941;SDS011;1985;48.592;8.850;2022-11-20T00:06:07;9.60;;;2.60;;
3941;SDS011;1985;48.592;8.850;2022-11-20T00:08:34;10.05;;;2.70;;
3941;SDS011;1985;48.592;8.850;2022-11-20T00:11:06;10.02;;;2.50;;
3941;SDS011;1985;48.592;8.850;2022-11-20T00:13:33;11.48;;;2.60;;
3941;SDS011;1985;48.592;8.850;2022-11-20T00:16:01;14.20;;;2.50;;
3941;SDS011;1985;48.592;8.850;2022-11-20T00:18:28;12.70;;;2.50;;
3941;SDS011;1985;48.592;8.850;2022-11-20T00:20:54;9.70;;;2.17;;
3941;SDS011;1985;48.592;8.850;2022-11-20T00:23:26;9.10;;;2.42;;
3941;SDS011;1985;48.592;8.850;2022-11-20T00:25:51;10.20;;;2.50;;
3941;SDS011;1985;48.592;8.850;2022-11-20T00:28:17;9.48;;;2.40;;
3941;SDS011;1985;48.592;8.850;2022-11-20T00:30:42;8.73;;;2.20;;
3941;SDS011;1985;48.592;8.850;2022-11-20T00:33:08;10.53;;;2.67;;
3941;SDS011;1985;48.592;8.850;2022-11-20T00:35:33;11.05;;;3.50;;
3941;SDS011;1985;48.592;8.850;2022-11-20T00:37:59;11.07;;;3.20;;
3941;SDS011;1985;48.592;8.850;2022-11-20T00:40:25;10.77;;;3.08;;
3941;SDS011;1985;48.592;8.850;2022-11-20T00:42:50;10.20;;;2.90;;
3941;SDS011;1985;48.592;8.850;2022-11-20T00:45:16;9.80;;;2.30;;
3941;SDS011;1985;48.592;8.850;2022-11-20T00:47:42;11.20;;;3.35;;
3941;SDS011;1985;48.592;8.850;2022-11-20T00:50:07;12.13;;;3.30;;
3941;SDS011;1985;48.592;8.850;2022-11-20T00:52:33;10.70;;;2.83;;
3941;SDS011;1985;48.592;8.850;2022-11-20T00:54:59;11.50;;;3.00;;
3941;SDS011;1985;48.592;8.850;2022-11-20T00:57:24;10.07;;;2.60;;
3941;SDS011;1985;48.592;8.850;2022-11-20T00:59:50;12.37;;;2.40;;
3941;SDS011;1985;48.592;8.850;2022-11-20T01:02:16;9.65;;;2.25;;
3941;SDS011;1985;48.592;8.850;2022-11-20T01:04:41;10.77;;;2.93;;
3941;SDS011;1985;48.592;8.850;2022-11-20T01:07:07;10.77;;;2.45;;
3941;SDS011;1985;48.592;8.850;2022-11-20T01:09:33;11.30;;;2.28;;
3941;SDS011;1985;48.592;8.850;2022-11-20T01:11:59;10.00;;;2.80;;
3941;SDS011;1985;48.592;8.850;2022-11-20T01:14:25;10.60;;;2.60;;
3941;SDS011;1985;48.592;8.850;2022-11-20T01:16:51;9.13;;;2.08;;
3941;SDS011;1985;48.592;8.850;2022-11-20T01:19:18;10.32;;;2.47;;
3941;SDS011;1985;48.592;8.850;2022-11-20T01:21:46;9.47;;;2.40;;
3941;SDS011;1985;48.592;8.850;2022-11-20T01:24:15;9.98;;;2.30;;
3941;SDS011;1985;48.592;8.850;2022-11-20T01:26:42;10.48;;;2.00;;
3941;SDS011;1985;48.592;8.850;2022-11-20T01:29:12;9.60;;;2.13;;
3941;SDS011;1985;48.592;8.850;2022-11-20T01:31:40;9.90;;;2.20;;
3941;SDS011;1985;48.592;8.850;2022-11-20T01:34:07;8.93;;;2.10;;
3941;SDS011;1985;48.592;8.850;2022-11-20T01:36:36;9.30;;;2.30;;
3941;SDS011;1985;48.592;8.850;2022-11-20T01:39:07;10.55;;;2.47;;
3941;SDS011;1985;48.592;8.850;2022-11-20T01:41:38;11.23;;;2.33;;
3941;SDS011;1985;48.592;8.850;2022-11-20T01:44:45;10.20;;;2.40;;
3941;SDS011;1985;48.592;8.850;2022-11-20T01:49:55;20.67;;;6.93;;
3941;SDS011;1985;48.592;8.850;2022-11-20T01:52:30;11.00;;;3.20;;
3941;SDS011;1985;48.592;8.850;2022-11-20T01:55:17;10.80;;;3.10;;
3941;SDS011;1985;48.592;8.850;2022-11-20T01:57:46;30.67;;;11.85;;
3941;SDS011;1985;48.592;8.850;2022-11-20T02:00:15;22.00;;;8.45;;
3941;SDS011;1985;48.592;8.850;2022-11-20T02:02:54;26.80;;;8.30;;
3941;SDS011;1985;48.592;8.850;2022-11-20T02:05:29;29.98;;;9.98;;
3941;SDS011;1985;48.592;8.850;2022-11-20T02:08:10;25.63;;;10.43;;
3941;SDS011;1985;48.592;8.850;2022-11-20T02:10:36;20.83;;;8.05;;
3941;SDS011;1985;48.592;8.850;2022-11-20T02:13:02;21.30;;;8.43;;
3941;SDS011;1985;48.592;8.850;2022-11-20T02:15:47;21.60;;;7.07;;
3941;SDS011;1985;48.592;8.850;2022-11-20T02:18:14;12.40;;;4.07;;
3941;SDS011;1985;48.592;8.850;2022-11-20T02:20:42;12.10;;;3.38;;
3941;SDS011;1985;48.592;8.850;2022-11-20T02:23:17;11.30;;;3.15;;
3941;SDS011;1985;48.592;8.850;2022-11-20T02:25:43;11.57;;;2.30;;
3941;SDS011;1985;48.592;8.850;2022-11-20T02:28:12;13.60;;;3.40;;
3941;SDS011;1985;48.592;8.850;2022-11-20T02:30:38;9.60;;;2.30;;
3941;SDS011;1985;48.592;8.850;2022-11-20T02:33:04;12.20;;;2.50;;
3941;SDS011;1985;48.592;8.850;2022-11-20T02:37:56;11.07;;;2.90;;
3941;SDS011;1985;48.592;8.850;2022-11-20T02:40:24;9.77;;;2.40;;
3941;SDS011;1985;48.592;8.850;2022-11-20T02:42:53;13.05;;;3.35;;
3941;SDS011;1985;48.592;8.850;2022-11-20T02:45:19;26.75;;;8.57;;
3941;SDS011;1985;48.592;8.850;2022-11-20T02:47:45;35.95;;;10.00;;
3941;SDS011;1985;48.592;8.850;2022-11-20T02:50:11;38.10;;;11.82;;
3941;SDS011;1985;48.592;8.850;2022-11-20T02:52:37;29.95;;;9.77;;
3941;SDS011;1985;48.592;8.850;2022-11-20T02:55:03;26.80;;;8.13;;
3941;SDS011;1985;48.592;8.850;2022-11-20T02:57:29;24.10;;;7.07;;
3941;SDS011;1985;48.592;8.850;2022-11-20T02:59:54;19.77;;;6.80;;
3941;SDS011;1985;48.592;8.850;2022-11-20T03:02:20;27.48;;;9.02;;
3941;SDS011;1985;48.592;8.850;2022-11-20T03:04:46;19.70;;;6.53;;
3941;SDS011;1985;48.592;8.850;2022-11-20T03:07:12;34.03;;;11.80;;
3941;SDS011;1985;48.592;8.850;2022-11-20T03:09:37;26.40;;;10.57;;
3941;SDS011;1985;48.592;8.850;2022-11-20T03:12:03;12.65;;;4.20;;
3941;SDS011;1985;48.592;8.850;2022-11-20T03:14:29;13.43;;;3.60;;
3941;SDS011;1985;48.592;8.850;2022-11-20T03:16:54;14.00;;;3.93;;
3941;SDS011;1985;48.592;8.850;2022-11-20T03:19:21;19.17;;;6.40;;
3941;SDS011;1985;48.592;8.850;2022-11-20T03:21:46;15.30;;;4.77;;
3941;SDS011;1985;48.592;8.850;2022-11-20T03:24:12;14.25;;;5.05;;
3941;SDS011;1985;48.592;8.850;2022-11-20T03:26:38;13.65;;;4.60;;
3941;SDS011;1985;48.592;8.850;2022-11-20T03:29:04;15.52;;;4.90;;
3941;SDS011;1985;48.592;8.850;2022-11-20T03:31:31;14.32;;;4.93;;
3941;SDS011;1985;48.592;8.850;2022-11-20T03:33:58;13.52;;;4.68;;
3941;SDS011;1985;48.592;8.850;2022-11-20T03:36:25;13.50;;;4.45;;
3941;SDS011;1985;48.592;8.850;2022-11-20T03:38:52;12.67;;;3.97;;
3941;SDS011;1985;48.592;8.850;2022-11-20T03:41:20;13.27;;;3.75;;
3941;SDS011;1985;48.592;8.850;2022-11-20T03:43:59;14.02;;;4.70;;
3941;SDS011;1985;48.592;8.850;2022-11-20T03:46:26;13.32;;;3.90;;
3941;SDS011;1985;48.592;8.850;2022-11-20T03:48:52;11.65;;;3.20;;
3941;SDS011;1985;48.592;8.850;2022-11-20T03:51:22;11.05;;;3.00;;
3941;SDS011;1985;48.592;8.850;2022-11-20T03:53:51;11.95;;;3.10;;
3941;SDS011;1985;48.592;8.850;2022-11-20T03:56:19;10.93;;;3.03;;
3941;SDS011;1985;48.592;8.850;2022-11-20T03:58:47;16.15;;;3.65;;
3941;SDS011;1985;48.592;8.850;2022-11-20T04:01:14;10.07;;;2.95;;
3941;SDS011;1985;48.592;8.850;2022-11-20T04:03:41;10.60;;;2.70;;
3941;SDS011;1985;48.592;8.850;2022-11-20T04:06:09;10.73;;;3.20;;
3941;SDS011;1985;48.592;8.850;2022-11-20T04:08:37;9.68;;;2.60;;
3941;SDS011;1985;48.592;8.850;2022-11-20T04:13:51;10.80;;;3.03;;
3941;SDS011;1985;48.592;8.850;2022-11-20T04:16:18;10.47;;;2.90;;
3941;SDS011;1985;48.592;8.850;2022-11-20T04:18:44;9.68;;;3.00;;
3941;SDS011;1985;48.592;8.850;2022-11-20T04:21:10;11.75;;;3.00;;
3941;SDS011;1985;48.592;8.850;2022-11-20T04:23:37;10.88;;;3.40;;
3941;SDS011;1985;48.592;8.850;2022-11-20T04:26:07;10.57;;;3.05;;
3941;SDS011;1985;48.592;8.850;2022-11-20T04:28:34;11.80;;;2.90;;
3941;SDS011;1985;48.592;8.850;2022-11-20T04:31:04;10.30;;;3.10;;
3941;SDS011;1985;48.592;8.850;2022-11-20T04:33:32;12.03;;;3.37;;
3941;SDS011;1985;48.592;8.850;2022-11-20T04:36:02;10.10;;;2.90;;
3941;SDS011;1985;48.592;8.850;2022-11-20T04:38:29;10.23;;;2.80;;
3941;SDS011;1985;48.592;8.850;2022-11-20T04:40:56;9.90;;;2.80;;
3941;SDS011;1985;48.592;8.850;2022-11-20T04:43:23;11.10;;;3.30;;
3941;SDS011;1985;48.592;8.850;2022-11-20T04:45:52;11.97;;;2.70;;
3941;SDS011;1985;48.592;8.850;2022-11-20T04:48:18;11.77;;;3.13;;
3941;SDS011;1985;48.592;8.850;2022-11-20T04:50:44;11.00;;;2.83;;
3941;SDS011;1985;48.592;8.850;2022-11-20T04:53:10;9.00;;;2.50;;
3941;SDS011;1985;48.592;8.850;2022-11-20T04:55:35;10.90;;;2.63;;
3941;SDS011;1985;48.592;8.850;2022-11-20T04:58:01;11.05;;;3.10;;
3941;SDS011;1985;48.592;8.850;2022-11-20T05:00:26;11.00;;;2.80;;
3941;SDS011;1985;48.592;8.850;2022-11-20T05:02:52;10.07;;;2.63;;
3941;SDS011;1985;48.592;8.850;2022-11-20T05:05:18;10.57;;;2.80;;
3941;SDS011;1985;48.592;8.850;2022-11-20T05:07:43;10.70;;;2.97;;
3941;SDS011;1985;48.592;8.850;2022-11-20T05:10:09;9.57;;;2.60;;
3941;SDS011;1985;48.592;8.850;2022-11-20T05:12:34;10.50;;;3.00;;
3941;SDS011;1985;48.592;8.850;2022-11-20T05:15:00;9.50;;;2.53;;
3941;SDS011;1985;48.592;8.850;2022-11-20T05:17:26;11.65;;;2.85;;
3941;SDS011;1985;48.592;8.850;2022-11-20T05:19:51;10.53;;;2.73;;
3941;SDS011;1985;48.592;8.850;2022-11-20T05:22:17;9.70;;;2.63;;
3941;SDS011;1985;48.592;8.850;2022-11-20T05:24:42;9.23;;;2.50;;
3941;SDS011;1985;48.592;8.850;2022-11-20T05:27:08;10.03;;;2.70;;
3941;SDS011;1985;48.592;8.850;2022-11-20T05:29:33;10.98;;;3.38;;
3941;SDS011;1985;48.592;8.850;2022-11-20T05:31:59;10.50;;;3.13;;
3941;SDS011;1985;48.592;8.850;2022-11-20T05:34:25;9.52;;;3.00;;
3941;SDS011;1985;48.592;8.850;2022-11-20T05:36:50;10.20;;;2.60;;
3941;SDS011;1985;48.592;8.850;2022-11-20T05:39:16;9.67;;;2.47;;
3941;SDS011;1985;48.592;8.850;2022-11-20T05:41:41;10.70;;;3.05;;
3941;SDS011;1985;48.592;8.850;2022-11-20T05:44:09;9.43;;;2.80;;
3941;SDS011;1985;48.592;8.850;2022-11-20T05:46:36;9.95;;;3.10;;
3941;SDS011;1985;48.592;8.850;2022-11-20T05:49:01;11.60;;;2.70;;
3941;SDS011;1985;48.592;8.850;2022-11-20T05:51:27;14.30;;;2.90;;
3941;SDS011;1985;48.592;8.850;2022-11-20T05:53:53;11.43;;;2.80;;
3941;SDS011;1985;48.592;8.850;2022-11-20T05:56:21;10.80;;;2.80;;
3941;SDS011;1985;48.592;8.850;2022-11-20T05:58:47;15.07;;;3.10;;
3941;SDS011;1985;48.592;8.850;2022-11-20T06:01:17;10.27;;;3.00;;
3941;SDS011;1985;48.592;8.850;2022-11-20T06:03:50;10.02;;;2.58;;
3941;SDS011;1985;48.592;8.850;2022-11-20T06:06:18;11.83;;;2.67;;
3941;SDS011;1985;48.592;8.850;2022-11-20T06:08:44;12.30;;;2.83;;
3941;SDS011;1985;48.592;8.850;2022-11-20T06:11:10;9.55;;;2.70;;
3941;SDS011;1985;48.592;8.850;2022-11-20T06:13:37;11.13;;;2.55;;
3941;SDS011;1985;48.592;8.850;2022-11-20T06:16:04;10.00;;;2.55;;
3941;SDS011;1985;48.592;8.850;2022-11-20T06:18:30;11.10;;;2.80;;
3941;SDS011;1985;48.592;8.850;2022-11-20T06:21:06;10.68;;;2.88;;
3941;SDS011;1985;48.592;8.850;2022-11-20T06:23:33;9.73;;;2.53;;
3941;SDS011;1985;48.592;8.850;2022-11-20T06:26:01;11.23;;;3.15;;
3941;SDS011;1985;48.592;8.850;2022-11-20T06:28:28;10.83;;;2.87;;
3941;SDS011;1985;48.592;8.850;2022-11-20T06:30:53;9.63;;;2.60;;
3941;SDS011;1985;48.592;8.850;2022-11-20T06:33:19;10.60;;;3.20;;
3941;SDS011;1985;48.592;8.850;2022-11-20T06:35:45;10.00;;;2.90;;
3941;SDS011;1985;48.592;8.850;2022-11-20T06:38:10;11.87;;;2.50;;
3941;SDS011;1985;48.592;8.850;2022-11-20T06:40:39;11.30;;;3.20;;
3941;SDS011;1985;48.592;8.850;2022-11-20T06:43:05;9.70;;;2.60;;
3941;SDS011;1985;48.592;8.850;2022-11-20T06:45:31;10.93;;;3.20;;
3941;SDS011;1985;48.592;8.850;2022-11-20T06:47:59;10.17;;;3.20;;
3941;SDS011;1985;48.592;8.850;2022-11-20T06:50:25;10.25;;;3.03;;
3941;SDS011;1985;48.592;8.850;2022-11-20T06:52:50;10.88;;;3.03;;
3941;SDS011;1985;48.592;8.850;2022-11-20T06:55:16;10.67;;;2.70;;
3941;SDS011;1985;48.592;8.850;2022-11-20T06:57:42;11.85;;;2.70;;
3941;SDS011;1985;48.592;8.850;2022-11-20T07:00:07;10.47;;;2.70;;
3941;SDS011;1985;48.592;8.850;2022-11-20T07:02:33;10.00;;;2.80;;
3941;SDS011;1985;48.592;8.850;2022-11-20T07:04:59;9.63;;;2.57;;
3941;SDS011;1985;48.592;8.850;2022-11-20T07:07:24;10.45;;;3.08;;
3941;SDS011;1985;48.592;8.850;2022-11-20T07:09:50;11.43;;;2.80;;
3941;SDS011;1985;48.592;8.850;2022-11-20T07:12:16;8.82;;;2.30;;
3941;SDS011;1985;48.592;8.850;2022-11-20T07:14:41;10.80;;;2.60;;
3941;SDS011;1985;48.592;8.850;2022-11-20T07:17:07;9.40;;;2.50;;
3941;SDS011;1985;48.592;8.850;2022-11-20T07:19:33;9.30;;;2.70;;
3941;SDS011;1985;48.592;8.850;2022-11-20T07:21:58;9.40;;;2.50;;
3941;SDS011;1985;48.592;8.850;2022-11-20T07:24:24;9.75;;;2.83;;
3941;SDS011;1985;48.592;8.850;2022-11-20T07:26:49;10.20;;;2.60;;
3941;SDS011;1985;48.592;8.850;2022-11-20T07:29:15;10.70;;;3.20;;
3941;SDS011;1985;48.592;8.850;2022-11-20T07:31:41;11.10;;;3.30;;
3941;SDS011;1985;48.592;8.850;2022-11-20T07:34:07;13.38;;;3.22;;
3941;SDS011;1985;48.592;8.850;2022-11-20T07:36:33;11.40;;;2.17;;
3941;SDS011;1985;48.592;8.850;2022-11-20T07:39:02;11.98;;;3.63;;
3941;SDS011;1985;48.592;8.850;2022-11-20T07:41:28;8.13;;;1.80;;
3941;SDS011;1985;48.592;8.850;2022-11-20T07:43:54;10.75;;;1.80;;
3941;SDS011;1985;48.592;8.850;2022-11-20T07:46:19;8.17;;;1.70;;
3941;SDS011;1985;48.592;8.850;2022-11-20T07:48:45;10.57;;;1.55;;
3941;SDS011;1985;48.592;8.850;2022-11-20T07:51:10;8.83;;;1.63;;
3941;SDS011;1985;48.592;8.850;2022-11-20T07:53:36;9.43;;;2.10;;
3941;SDS011;1985;48.592;8.850;2022-11-20T07:56:02;9.00;;;2.05;;
3941;SDS011;1985;48.592;8.850;2022-11-20T07:58:28;9.80;;;2.20;;
3941;SDS011;1985;48.592;8.850;2022-11-20T08:00:55;9.15;;;2.35;;
3941;SDS011;1985;48.592;8.850;2022-11-20T08:03:21;8.93;;;2.25;;
3941;SDS011;1985;48.592;8.850;2022-11-20T08:05:46;10.27;;;2.10;;
3941;SDS011;1985;48.592;8.850;2022-11-20T08:08:12;11.90;;;2.20;;
3941;SDS011;1985;48.592;8.850;2022-11-20T08:10:38;9.05;;;1.85;;
3941;SDS011;1985;48.592;8.850;2022-11-20T08:13:03;9.00;;;1.97;;
3941;SDS011;1985;48.592;8.850;2022-11-20T08:15:48;8.93;;;1.90;;
3941;SDS011;1985;48.592;8.850;2022-11-20T08:18:15;8.98;;;1.90;;
3941;SDS011;1985;48.592;8.850;2022-11-20T08:20:42;8.38;;;1.85;;
3941;SDS011;1985;48.592;8.850;2022-11-20T08:23:08;8.70;;;1.90;;
3941;SDS011;1985;48.592;8.850;2022-11-20T08:25:35;8.80;;;1.50;;
3941;SDS011;1985;48.592;8.850;2022-11-20T08:28:03;8.60;;;1.70;;
3941;SDS011;1985;48.592;8.850;2022-11-20T08:30:34;8.20;;;1.60;;
3941;SDS011;1985;48.592;8.850;2022-11-20T08:33:02;8.13;;;1.30;;
3941;SDS011;1985;48.592;8.850;2022-11-20T08:35:32;7.70;;;1.30;;
3941;SDS011;1985;48.592;8.850;2022-11-20T08:38:02;11.70;;;1.50;;
3941;SDS011;1985;48.592;8.850;2022-11-20T08:40:28;7.78;;;1.20;;
3941;SDS011;1985;48.592;8.850;2022-11-20T08:42:54;7.82;;;1.35;;
3941;SDS011;1985;48.592;8.850;2022-11-20T08:45:19;7.80;;;1.30;;
3941;SDS011;1985;48.592;8.850;2022-11-20T08:47:45;7.10;;;0.93;;
3941;SDS011;1985;48.592;8.850;2022-11-20T08:50:12;7.75;;;1.20;;
3941;SDS011;1985;48.592;8.850;2022-11-20T08:52:39;7.50;;;1.30;;
3941;SDS011;1985;48.592;8.850;2022-11-20T08:55:05;7.85;;;1.20;;
3941;SDS011;1985;48.592;8.850;2022-11-20T08:57:32;7.57;;;1.20;;
3941;SDS011;1985;48.592;8.850;2022-11-20T09:00:03;7.60;;;1.20;;
3941;SDS011;1985;48.592;8.850;2022-11-20T09:02:30;7.90;;;1.10;;
3941;SDS011;1985;48.592;8.850;2022-11-20T09:04:57;7.10;;;0.90;;
3941;SDS011;1985;48.592;8.850;2022-11-20T09:07:22;7.30;;;1.10;;
3941;SDS011;1985;48.592;8.850;2022-11-20T09:09:48;7.40;;;1.00;;
3941;SDS011;1985;48.592;8.850;2022-11-20T09:12:14;7.50;;;1.07;;
3941;SDS011;1985;48.592;8.850;2022-11-20T09:14:40;7.65;;;1.00;;
3941;SDS011;1985;48.592;8.850;2022-11-20T09:17:05;7.70;;;1.10;;
3941;SDS011;1985;48.592;8.850;2022-11-20T09:19:32;7.20;;;1.00;;
3941;SDS011;1985;48.592;8.850;2022-11-20T09:21:58;7.63;;;1.10;;
3941;SDS011;1985;48.592;8.850;2022-11-20T09:24:26;7.83;;;1.10;;
3941;SDS011;1985;48.592;8.850;2022-11-20T09:26:52;7.25;;;0.80;;
3941;SDS011;1985;48.592;8.850;2022-11-20T09:29:18;7.30;;;1.00;;
3941;SDS011;1985;48.592;8.850;2022-11-20T09:31:43;10.13;;;1.00;;
3941;SDS011;1985;48.592;8.850;2022-11-20T09:34:09;7.37;;;1.00;;
3941;SDS011;1985;48.592;8.850;2022-11-20T09:36:35;7.38;;;1.00;;
3941;SDS011;1985;48.592;8.850;2022-11-20T09:39:01;7.60;;;1.10;;
3941;SDS011;1985;48.592;8.850;2022-11-20T09:50:00;7.65;;;1.10;;
3941;SDS011;1985;48.592;8.850;2022-11-20T09:55:00;7.20;;;0.90;;
3941;SDS011;1985;48.592;8.850;2022-11-20T09:57:38;7.55;;;1.00;;
3941;SDS011;1985;48.592;8.850;2022-11-20T10:00:10;7.50;;;1.10;;
3941;SDS011;1985;48.592;8.850;2022-11-20T10:02:39;9.40;;;1.55;;
3941;SDS011;1985;48.592;8.850;2022-11-20T10:05:21;7.40;;;1.00;;
3941;SDS011;1985;48.592;8.850;2022-11-20T10:29:39;7.90;;;1.20;;
3941;SDS011;1985;48.592;8.850;2022-11-20T10:32:14;7.90;;;0.90;;
3941;SDS011;1985;48.592;8.850;2022-11-20T10:34:48;9.17;;;1.30;;
3941;SDS011;1985;48.592;8.850;2022-11-20T10:37:24;7.40;;;1.10;;
3941;SDS011;1985;48.592;8.850;2022-11-20T10:39:54;7.80;;;1.00;;
3941;SDS011;1985;48.592;8.850;2022-11-20T10:42:38;7.40;;;1.02;;
3941;SDS011;1985;48.592;8.850;2022-11-20T10:48:11;7.72;;;1.00;;
3941;SDS011;1985;48.592;8.850;2022-11-20T10:54:22;8.05;;;1.20;;
3941;SDS011;1985;48.592;8.850;2022-11-20T10:57:10;11.30;;;1.30;;
3941;SDS011;1985;48.592;8.850;2022-11-20T11:02:20;7.60;;;0.90;;
3941;SDS011;1985;48.592;8.850;2022-11-20T11:04:49;9.43;;;1.10;;
3941;SDS011;1985;48.592;8.850;2022-11-20T11:07:30;8.20;;;0.90;;
3941;SDS011;1985;48.592;8.850;2022-11-20T11:10:01;8.07;;;1.00;;
3941;SDS011;1985;48.592;8.850;2022-11-20T11:12:38;9.30;;;1.20;;
3941;SDS011;1985;48.592;8.850;2022-11-20T11:15:24;7.50;;;1.08;;
3941;SDS011;1985;48.592;8.850;2022-11-20T11:17:50;8.70;;;1.57;;
3941;SDS011;1985;48.592;8.850;2022-11-20T11:20:23;7.90;;;1.10;;
3941;SDS011;1985;48.592;8.850;2022-11-20T11:22:51;8.30;;;1.30;;
3941;SDS011;1985;48.592;8.850;2022-11-20T11:25:29;10.05;;;1.20;;
3941;SDS011;1985;48.592;8.850;2022-11-20T11:27:59;7.80;;;1.17;;
3941;SDS011;1985;48.592;8.850;2022-11-20T11:30:45;8.35;;;1.20;;
3941;SDS011;1985;48.592;8.850;2022-11-20T11:33:18;9.15;;;1.10;;
3941;SDS011;1985;48.592;8.850;2022-11-20T11:35:53;9.20;;;1.10;;
3941;SDS011;1985;48.592;8.850;2022-11-20T11:40:59;7.90;;;1.10;;
3941;SDS011;1985;48.592;8.850;2022-11-20T11:43:28;8.30;;;1.20;;
3941;SDS011;1985;48.592;8.850;2022-11-20T11:46:25;9.20;;;1.20;;
3941;SDS011;1985;48.592;8.850;2022-11-20T11:49:39;9.40;;;1.30;;
3941;SDS011;1985;48.592;8.850;2022-11-20T11:52:01;10.10;;;1.20;;
3941;SDS011;1985;48.592;8.850;2022-11-20T11:59:59;8.32;;;1.27;;
3941;SDS011;1985;48.592;8.850;2022-11-20T12:02:35;11.25;;;1.15;;
3941;SDS011;1985;48.592;8.850;2022-11-20T12:07:55;9.10;;;1.08;;
3941;SDS011;1985;48.592;8.850;2022-11-20T12:10:39;9.88;;;1.30;;
3941;SDS011;1985;48.592;8.850;2022-11-20T12:15:59;7.50;;;0.82;;
3941;SDS011;1985;48.592;8.850;2022-11-20T12:18:28;8.90;;;1.20;;
3941;SDS011;1985;48.592;8.850;2022-11-20T12:40:35;7.72;;;0.95;;
3941;SDS011;1985;48.592;8.850;2022-11-20T12:46:04;7.80;;;1.00;;
3941;SDS011;1985;48.592;8.850;2022-11-20T12:48:58;8.30;;;1.00;;
3941;SDS011;1985;48.592;8.850;2022-11-20T13:05:53;8.02;;;1.00;;
3941;SDS011;1985;48.592;8.850;2022-11-20T13:08:36;7.63;;;1.00;;
3941;SDS011;1985;48.592;8.850;2022-11-20T13:17:05;7.80;;;1.00;;
3941;SDS011;1985;48.592;8.850;2022-11-20T13:19:54;8.10;;;1.02;;
3941;SDS011;1985;48.592;8.850;2022-11-20T13:22:42;7.57;;;1.00;;
3941;SDS011;1985;48.592;8.850;2022-11-20T13:27:49;8.00;;;1.10;;
3941;SDS011;1985;48.592;8.850;2022-11-20T13:30:16;7.90;;;1.10;;
3941;SDS011;1985;48.592;8.850;2022-11-20T13:32:51;9.85;;;1.42;;
3941;SDS011;1985;48.592;8.850;2022-11-20T13:40:29;8.60;;;1.23;;
3941;SDS011;1985;48.592;8.850;2022-11-20T13:43:00;10.00;;;1.00;;
3941;SDS011;1985;48.592;8.850;2022-11-20T13:45:27;9.50;;;1.30;;
3941;SDS011;1985;48.592;8.850;2022-11-20T13:47:57;9.57;;;1.52;;
3941;SDS011;1985;48.592;8.850;2022-11-20T13:51:14;7.53;;;0.98;;
3941;SDS011;1985;48.592;8.850;2022-11-20T14:01:20;8.50;;;1.27;;
3941;SDS011;1985;48.592;8.850;2022-11-20T14:03:48;8.95;;;1.30;;
3941;SDS011;1985;48.592;8.850;2022-11-20T14:06:18;7.68;;;1.25;;
3941;SDS011;1985;48.592;8.850;2022-11-20T14:08:52;9.30;;;1.20;;
3941;SDS011;1985;48.592;8.850;2022-11-20T14:11:19;10.20;;;1.10;;
3941;SDS011;1985;48.592;8.850;2022-11-20T14:13:56;8.70;;;1.10;;
3941;SDS011;1985;48.592;8.850;2022-11-20T14:16:38;10.55;;;1.45;;
3941;SDS011;1985;48.592;8.850;2022-11-20T14:21:47;8.32;;;1.40;;
3941;SDS011;1985;48.592;8.850;2022-11-20T14:24:24;7.95;;;1.20;;
3941;SDS011;1985;48.592;8.850;2022-11-20T14:26:50;8.10;;;1.20;;
3941;SDS011;1985;48.592;8.850;2022-11-20T14:29:21;9.50;;;1.30;;
3941;SDS011;1985;48.592;8.850;2022-11-20T14:31:51;9.43;;;1.60;;
3941;SDS011;1985;48.592;8.850;2022-11-20T14:34:19;10.10;;;1.37;;
3941;SDS011;1985;48.592;8.850;2022-11-20T14:37:00;8.35;;;1.50;;
3941;SDS011;1985;48.592;8.850;2022-11-20T14:39:35;8.30;;;1.27;;
3941;SDS011;1985;48.592;8.850;2022-11-20T14:42:03;9.52;;;1.20;;
3941;SDS011;1985;48.592;8.850;2022-11-20T14:44:39;8.05;;;1.17;;
3941;SDS011;1985;48.592;8.850;2022-11-20T14:47:08;8.15;;;1.23;;
3941;SDS011;1985;48.592;8.850;2022-11-20T14:49:37;9.60;;;1.98;;
3941;SDS011;1985;48.592;8.850;2022-11-20T14:52:37;8.00;;;1.23;;
3941;SDS011;1985;48.592;8.850;2022-11-20T14:54:56;10.18;;;1.60;;
3941;SDS011;1985;48.592;8.850;2022-11-20T14:57:27;8.38;;;1.50;;
3941;SDS011;1985;48.592;8.850;2022-11-20T15:00:06;8.32;;;1.50;;
3941;SDS011;1985;48.592;8.850;2022-11-20T15:02:38;8.30;;;1.33;;
3941;SDS011;1985;48.592;8.850;2022-11-20T15:05:08;8.50;;;1.40;;
3941;SDS011;1985;48.592;8.850;2022-11-20T15:12:49;8.20;;;1.60;;
3941;SDS011;1985;48.592;8.850;2022-11-20T15:15:25;8.07;;;1.10;;
3941;SDS011;1985;48.592;8.850;2022-11-20T15:17:52;10.23;;;1.33;;
3941;SDS011;1985;48.592;8.850;2022-11-20T15:20:18;8.30;;;1.50;;
3941;SDS011;1985;48.592;8.850;2022-11-20T15:22:46;9.60;;;1.33;;
3941;SDS011;1985;48.592;8.850;2022-11-20T15:25:13;8.60;;;1.30;;
3941;SDS011;1985;48.592;8.850;2022-11-20T15:27:39;9.90;;;1.70;;
3941;SDS011;1985;48.592;8.850;2022-11-20T15:30:16;8.90;;;1.38;;
3941;SDS011;1985;48.592;8.850;2022-11-20T15:32:44;8.27;;;1.60;;
3941;SDS011;1985;48.592;8.850;2022-11-20T15:35:11;8.00;;;1.40;;
3941;SDS011;1985;48.592;8.850;2022-11-20T15:37:37;10.43;;;1.85;;
3941;SDS011;1985;48.592;8.850;2022-11-20T15:40:03;10.73;;;1.80;;
3941;SDS011;1985;48.592;8.850;2022-11-20T15:42:29;9.82;;;2.15;;
3941;SDS011;1985;48.592;8.850;2022-11-20T15:44:55;9.90;;;2.20;;
3941;SDS011;1985;48.592;8.850;2022-11-20T15:47:22;10.87;;;2.17;;
3941;SDS011;1985;48.592;8.850;2022-11-20T15:49:53;10.17;;;2.40;;
3941;SDS011;1985;48.592;8.850;2022-11-20T15:52:18;8.93;;;1.57;;
3941;SDS011;1985;48.592;8.850;2022-11-20T15:54:44;8.52;;;1.45;;
3941;SDS011;1985;48.592;8.850;2022-11-20T15:57:10;9.10;;;2.40;;
3941;SDS011;1985;48.592;8.850;2022-11-20T15:59:35;8.45;;;1.70;;
3941;SDS011;1985;48.592;8.850;2022-11-20T16:02:14;8.27;;;1.48;;
3941;SDS011;1985;48.592;8.850;2022-11-20T16:04:40;8.70;;;1.30;;
3941;SDS011;1985;48.592;8.850;2022-11-20T16:07:06;8.77;;;1.60;;
3941;SDS011;1985;48.592;8.850;2022-11-20T16:09:33;8.68;;;1.60;;
3941;SDS011;1985;48.592;8.850;2022-11-20T16:11:58;8.57;;;1.40;;
3941;SDS011;1985;48.592;8.850;2022-11-20T16:14:25;10.30;;;1.50;;
3941;SDS011;1985;48.592;8.850;2022-11-20T16:17:10;8.15;;;1.48;;
3941;SDS011;1985;48.592;8.850;2022-11-20T16:19:36;8.20;;;1.20;;
3941;SDS011;1985;48.592;8.850;2022-11-20T16:22:02;7.70;;;1.50;;
3941;SDS011;1985;48.592;8.850;2022-11-20T16:24:28;8.70;;;1.60;;
3941;SDS011;1985;48.592;8.850;2022-11-20T16:26:54;8.60;;;1.63;;
3941;SDS011;1985;48.592;8.850;2022-11-20T16:29:20;8.20;;;1.30;;
3941;SDS011;1985;48.592;8.850;2022-11-20T16:31:46;9.90;;;1.40;;
3941;SDS011;1985;48.592;8.850;2022-11-20T16:34:15;10.48;;;1.80;;
3941;SDS011;1985;48.592;8.850;2022-11-20T16:36:51;8.60;;;1.80;;
3941;SDS011;1985;48.592;8.850;2022-11-20T16:39:17;8.20;;;1.70;;
3941;SDS011;1985;48.592;8.850;2022-11-20T16:41:43;9.87;;;1.63;;
3941;SDS011;1985;48.592;8.850;2022-11-20T16:44:09;8.83;;;1.90;;
3941;SDS011;1985;48.592;8.850;2022-11-20T16:46:35;8.80;;;1.70;;
3941;SDS011;1985;48.592;8.850;2022-11-20T16:49:03;9.38;;;1.70;;
3941;SDS011;1985;48.592;8.850;2022-11-20T16:51:31;9.85;;;2.10;;
3941;SDS011;1985;48.592;8.850;2022-11-20T16:54:08;8.77;;;1.90;;
3941;SDS011;1985;48.592;8.850;2022-11-20T16:56:34;10.70;;;2.50;;
3941;SDS011;1985;48.592;8.850;2022-11-20T16:59:00;9.32;;;2.28;;
3941;SDS011;1985;48.592;8.850;2022-11-20T17:01:27;10.20;;;2.20;;
3941;SDS011;1985;48.592;8.850;2022-11-20T17:04:00;8.07;;;1.80;;
3941;SDS011;1985;48.592;8.850;2022-11-20T17:06:33;9.68;;;1.60;;
3941;SDS011;1985;48.592;8.850;2022-11-20T17:09:01;8.50;;;1.50;;
3941;SDS011;1985;48.592;8.850;2022-11-20T17:11:27;10.95;;;1.85;;
3941;SDS011;1985;48.592;8.850;2022-11-20T17:13:54;7.90;;;1.80;;
3941;SDS011;1985;48.592;8.850;2022-11-20T17:16:22;10.13;;;2.10;;
3941;SDS011;1985;48.592;8.850;2022-11-20T17:18:48;9.73;;;2.20;;
3941;SDS011;1985;48.592;8.850;2022-11-20T17:21:15;21.63;;;6.63;;
3941;SDS011;1985;48.592;8.850;2022-11-20T17:23:42;23.35;;;7.50;;
3941;SDS011;1985;48.592;8.850;2022-11-20T17:26:16;26.55;;;9.50;;
3941;SDS011;1985;48.592;8.850;2022-11-20T17:28:44;75.63;;;22.00;;
3941;SDS011;1985;48.592;8.850;2022-11-20T17:31:11;27.10;;;8.85;;